Buckeye, AZ

3:14 PM MST on September 21, 2014 (GMT -0700)
Desert Villa @ Las Brisas | Change Station
CLOSE
Current Station
Personal Weather Station
Location: Goodyear, AZ
Elevation: 921 ft
Nearby Weather Stations

Elev 921 ft 33.41 °N, 112.46 °W | Updated 2 seconds ago

Clear
Clear
105.3 °F
Feels Like 105 °F
N
2.0
Wind Variable Wind from SW
Gusts 6.0 mph

Today
High -- | Low -- °F
--% Chance of Precip.
Yesterday
High -- | Low -- °F
Precip. -- in
6:17 AM 6:28 PM
Waning Crescent, 5% visible
Pressure 29.87 in
Visibility 10.0 miles
Clouds Clear
Heat Index 105 °F
Dew Point 56 °F
Humidity 20%
Rainfall 0.00 in
Snow Depth 0 in , 0 in
UV 6 out of 12
Pollen 6.40 out of 12
Ozone Good
PM2.5 Good
Flu Activity Not available.
METAR KBXK 212155Z AUTO 16005KT 10SM CLR 36/08 A2987 RMK AO1

More Conditions Fewer Conditions

Pressure 29.87 in
Visibility 10.0 miles
Clouds Clear
Heat Index 105 °F
Dew Point 56 °F
Humidity 20%
Rainfall 0.00 in
Snow Depth 0 in , 0 in
UV 6 out of 12
Pollen 6.40 out of 12
Ozone Good
PM2.5 Good
Flu Activity Not available.
METAR KBXK 212155Z AUTO 16005KT 10SM CLR 36/08 A2987 RMK AO1

More Conditions Fewer Conditions

10-Day Weather Forecast

Almanac

Astronomy

Sep. 21, 2014 Rise Set
Actual Time 6:17 AM MST 6:28 PM MST
Civil Twilight 5:53 AM MST 6:53 PM MST
Nautical Twilight 5:24 AM MST 7:21 PM MST
Astronomical Twilight 4:54 AM MST 7:51 PM MST
Moon 4:00 AM MST 5:02 PM MST
Length of Visible Light 13h 00m
Length of Day
12h 10m
Tomorrow will be 2m 2s shorter.
Waning Crescent, 5% of the Moon is Illuminated
Today
Waning Crescent
Sep 24
New
Oct 1
First Quarter
Oct 8
Full
Oct 15
Last Quarter

Today's Extremes

State Highs State Lows

Community

WunderPhotos

Upload Photos

1,755,269 photos uploaded!

WunderBlogs® & News

Nearby

Air Quality

  Air Quality AQ Index Pollutant
Yesterday Good
PM2.5
Yesterday Good
OZONE
Current Good
OZONE
Current Good
PM2.5
Sunday Good
PM2.5
Sunday Moderate
OZONE
Sunday Good
CO
Monday Moderate
OZONE
Monday Good
PM10
Monday Good
CO
Tuesday Moderate
OZONE
Tuesday Good
PM10
Tuesday Good
CO

Snow Depth

Station Depth Elevation
Beaver Head 0 in 7990 ft
Workman Creek 0 in 6900 ft
Snowslide Canyon 0 in 9730 ft

Earthquake Activity

City Distance Mag. Time & Date
No recent earthquake activity has been reported nearby.
Minimum magnitude displayed is 2.5.

Coastal Water Temperatures

Place Temperature
No Stations Reporting

Nearby Weather Stations